Time;durP1;ratioP1;P1;durP2;ratioP2;P2;SDS_P1;SDS_P2;PMS_P1;PMS_P2;Temp;Humidity;BMP_temperature;BMP_pressure;BME280_temperature;BME280_humidity;BME280_pressure;Samples;Min_cycle;Max_cycle;Signal;HPM_P1;HPM_P2
2023/06/20 00:00:36;;;;;;;4.90;4.50;;;24.60;52.60;;;;;;5034026;28;20171;-57
2023/06/20 00:03:01;;;;;;;5.18;4.78;;;24.70;52.70;;;;;;5034464;28;20206;-59
2023/06/20 00:05:27;;;;;;;5.63;5.13;;;24.60;52.70;;;;;;5034691;28;20254;-58
2023/06/20 00:07:54;;;;;;;4.90;4.50;;;24.70;52.70;;;;;;5034132;28;20272;-58
2023/06/20 00:10:20;;;;;;;6.22;4.70;;;24.60;52.70;;;;;;5034514;28;20254;-58
2023/06/20 00:12:45;;;;;;;4.93;4.53;;;24.60;52.60;;;;;;5034792;28;20184;-58
2023/06/20 00:15:11;;;;;;;5.28;4.78;;;24.60;52.60;;;;;;5033859;28;20207;-57
2023/06/20 00:17:38;;;;;;;6.45;5.13;;;24.60;52.70;;;;;;5034568;28;20251;-57
2023/06/20 00:20:07;;;;;;;5.53;5.03;;;24.60;52.70;;;;;;5034105;28;20661;-57
2023/06/20 00:22:34;;;;;;;5.22;4.80;;;24.60;52.70;;;;;;5033896;28;20184;-56
2023/06/20 00:25:03;;;;;;;5.07;4.68;;;24.60;52.70;;;;;;5034281;28;20231;-57
2023/06/20 00:27:29;;;;;;;5.18;4.78;;;24.60;52.70;;;;;;5033802;28;20180;-56
2023/06/20 00:29:54;;;;;;;5.32;4.70;;;24.60;52.70;;;;;;5034515;28;20266;-56
2023/06/20 00:32:20;;;;;;;5.22;4.80;;;24.60;52.70;;;;;;5034031;28;20168;-57
2023/06/20 00:34:46;;;;;;;4.90;4.50;;;24.60;52.70;;;;;;5033754;28;20187;-56
2023/06/20 00:37:11;;;;;;;5.00;4.57;;;24.60;52.70;;;;;;5033481;28;20206;-57
2023/06/20 00:39:37;;;;;;;4.85;4.50;;;24.60;52.70;;;;;;5034325;28;20176;-58
2023/06/20 00:42:04;;;;;;;5.00;4.20;;;24.60;52.70;;;;;;5033083;28;20222;-56
2023/06/20 00:44:29;;;;;;;5.53;5.03;;;24.60;52.70;;;;;;5033951;28;20225;-57
2023/06/20 00:46:55;;;;;;;4.70;4.30;;;24.60;52.70;;;;;;5034043;28;20259;-57
2023/06/20 00:49:20;;;;;;;4.95;4.55;;;24.60;52.70;;;;;;5032213;28;20259;-57
2023/06/20 00:51:46;;;;;;;5.03;4.63;;;24.60;52.70;;;;;;5034095;28;20199;-56
2023/06/20 00:54:11;;;;;;;5.20;4.80;;;24.60;52.70;;;;;;5033743;28;20203;-57
2023/06/20 00:56:37;;;;;;;4.60;4.20;;;24.60;52.70;;;;;;5033206;28;20176;-57
2023/06/20 00:59:03;;;;;;;4.88;4.43;;;24.60;52.70;;;;;;5033915;28;20954;-56
2023/06/20 01:01:31;;;;;;;4.82;4.43;;;24.50;52.60;;;;;;5033666;28;20653;-58
2023/06/20 01:03:57;;;;;;;4.57;4.18;;;24.60;52.70;;;;;;5032886;28;20212;-58
2023/06/20 01:06:41;;;;;;;4.68;4.28;;;24.60;52.70;;;;;;5032648;28;20184;-58
2023/06/20 01:09:16;;;;;;;4.68;4.28;;;24.60;52.80;;;;;;5032250;28;20251;-58
2023/06/20 01:12:00;;;;;;;5.20;4.70;;;24.60;52.70;;;;;;5032959;28;20213;-58
2023/06/20 01:14:47;;;;;;;5.28;4.85;;;24.60;52.70;;;;;;5033631;28;20669;-58
2023/06/20 01:17:20;;;;;;;4.82;4.43;;;24.60;52.70;;;;;;5032558;28;20190;-58
2023/06/20 01:19:53;;;;;;;4.75;4.35;;;24.60;52.70;;;;;;5033505;28;20186;-56
2023/06/20 01:22:48;;;;;;;4.80;4.40;;;24.60;52.70;;;;;;5032171;28;20179;-58
2023/06/20 01:25:25;;;;;;;4.82;4.35;;;24.60;52.70;;;;;;5032251;28;20294;-57
2023/06/20 01:28:15;;;;;;;4.65;4.22;;;24.50;52.70;;;;;;5033553;28;20180;-54
2023/06/20 01:30:54;;;;;;;5.22;4.72;;;24.60;52.70;;;;;;5025388;28;20194;-56
2023/06/20 01:33:25;;;;;;;4.70;4.30;;;24.50;52.70;;;;;;5033312;28;20191;-57
2023/06/20 01:35:51;;;;;;;4.78;4.40;;;24.50;52.70;;;;;;5032245;28;20196;-57
2023/06/20 01:38:16;;;;;;;4.82;3.85;;;24.50;52.70;;;;;;5032037;28;20224;-57
2023/06/20 01:40:42;;;;;;;5.68;5.18;;;24.50;52.70;;;;;;5031896;28;20583;-57
2023/06/20 01:43:07;;;;;;;4.88;4.47;;;24.50;52.70;;;;;;5031548;28;20532;-58
2023/06/20 01:45:36;;;;;;;5.00;4.50;;;24.50;52.70;;;;;;5031307;28;20225;-57
2023/06/20 01:48:03;;;;;;;4.32;3.92;;;24.50;52.70;;;;;;5031102;28;20639;-56
2023/06/20 01:50:29;;;;;;;4.28;3.95;;;24.50;52.70;;;;;;5031543;28;20658;-56
2023/06/20 01:52:55;;;;;;;4.78;4.38;;;24.50;52.70;;;;;;5031055;28;20234;-56
2023/06/20 01:55:21;;;;;;;4.43;4.03;;;24.60;52.80;;;;;;5031309;28;20176;-55
2023/06/20 01:57:46;;;;;;;5.03;4.63;;;24.50;52.70;;;;;;5031679;28;20571;-55
2023/06/20 02:00:12;;;;;;;4.80;4.40;;;24.50;52.70;;;;;;5030565;28;20187;-57
2023/06/20 02:02:38;;;;;;;4.70;4.30;;;24.50;52.70;;;;;;5032675;28;20225;-59
2023/06/20 02:05:05;;;;;;;5.00;4.50;;;24.50;52.70;;;;;;5031110;28;20211;-58
2023/06/20 02:07:30;;;;;;;5.25;4.78;;;24.50;52.60;;;;;;5030851;28;20631;-57
2023/06/20 02:09:56;;;;;;;4.72;4.32;;;24.50;52.70;;;;;;5031482;28;20180;-57
2023/06/20 02:12:22;;;;;;;4.53;4.22;;;24.50;52.80;;;;;;5031684;28;20282;-57
2023/06/20 02:14:47;;;;;;;4.93;4.53;;;24.50;52.70;;;;;;5031972;28;20182;-57
2023/06/20 02:17:14;;;;;;;4.57;4.18;;;24.50;52.70;;;;;;5032578;28;20176;-58
2023/06/20 02:19:39;;;;;;;4.65;4.25;;;24.50;52.70;;;;;;5031650;28;20203;-57
2023/06/20 02:22:05;;;;;;;4.82;4.43;;;24.50;52.70;;;;;;5031664;28;20203;-58
2023/06/20 02:24:31;;;;;;;4.65;4.20;;;24.50;52.70;;;;;;5032423;28;20203;-57
2023/06/20 02:26:57;;;;;;;4.88;4.47;;;24.50;52.70;;;;;;5030405;28;20255;-56
2023/06/20 02:29:23;;;;;;;5.15;4.68;;;24.50;52.70;;;;;;5033216;28;20623;-57
2023/06/20 02:31:49;;;;;;;5.00;4.60;;;24.50;52.70;;;;;;5031599;28;20180;-55
2023/06/20 02:34:18;;;;;;;4.40;4.00;;;24.50;52.80;;;;;;5030530;28;20612;-57
2023/06/20 02:36:44;;;;;;;4.40;4.00;;;24.50;52.70;;;;;;5031400;28;20250;-57
2023/06/20 02:39:09;;;;;;;4.22;3.83;;;24.50;52.70;;;;;;5030846;28;20774;-58
2023/06/20 02:41:35;;;;;;;4.80;4.40;;;24.50;52.70;;;;;;5031696;28;20168;-57
2023/06/20 02:44:00;;;;;;;5.03;4.63;;;24.50;52.70;;;;;;5032214;28;20203;-57
2023/06/20 02:46:29;;;;;;;4.72;4.32;;;24.50;52.70;;;;;;5032564;28;20176;-56
2023/06/20 02:49:04;;;;;;;4.72;4.32;;;24.50;52.70;;;;;;5031852;28;20279;-55
2023/06/20 02:52:03;;;;;;;5.47;4.93;;;24.50;52.70;;;;;;5032405;28;20187;-57
2023/06/20 02:54:35;;;;;;;5.45;4.72;;;24.50;52.70;;;;;;5032442;28;20210;-56
2023/06/20 02:57:01;;;;;;;4.60;4.28;;;24.50;52.70;;;;;;5030489;28;20172;-57
2023/06/20 02:59:27;;;;;;;4.28;3.97;;;24.50;53.40;;;;;;5031310;28;20593;-58
2023/06/20 03:01:56;;;;;;;4.90;4.45;;;24.50;52.70;;;;;;5034956;28;20192;-57
2023/06/20 03:04:21;;;;;;;4.90;4.50;;;24.50;52.80;;;;;;5035612;28;20220;-54
2023/06/20 03:06:51;;;;;;;5.05;4.55;;;24.40;52.60;;;;;;5034638;28;20242;-58
2023/06/20 03:09:16;;;;;;;5.18;4.68;;;24.40;52.60;;;;;;5033909;28;20188;-57
2023/06/20 03:11:42;;;;;;;4.60;4.20;;;24.40;52.70;;;;;;5035889;28;20525;-57
2023/06/20 03:14:12;;;;;;;5.20;4.70;;;24.50;52.80;;;;;;5035465;28;20203;-58
2023/06/20 03:16:37;;;;;;;5.10;4.60;;;24.50;52.70;;;;;;5033799;28;20182;-56
2023/06/20 03:19:03;;;;;;;4.63;4.32;;;24.40;52.70;;;;;;5035328;28;20258;-58
2023/06/20 03:21:28;;;;;;;5.03;4.55;;;24.40;52.70;;;;;;5035879;28;20707;-57
2023/06/20 03:23:54;;;;;;;4.72;4.32;;;24.40;52.70;;;;;;5034976;28;20171;-56
2023/06/20 03:26:19;;;;;;;5.82;4.75;;;24.40;52.70;;;;;;5035427;28;20172;-56
2023/06/20 03:28:45;;;;;;;4.80;4.40;;;24.40;52.70;;;;;;5035637;28;20218;-56
2023/06/20 03:31:10;;;;;;;5.15;4.65;;;24.50;52.70;;;;;;5034601;28;20176;-57
2023/06/20 03:33:36;;;;;;;4.70;4.30;;;24.40;52.70;;;;;;5035374;28;20536;-58
2023/06/20 03:36:01;;;;;;;4.75;4.35;;;24.40;52.70;;;;;;5035292;28;20206;-57
2023/06/20 03:38:27;;;;;;;5.10;4.60;;;24.40;52.70;;;;;;5034309;28;20681;-57
2023/06/20 03:40:54;;;;;;;4.60;4.20;;;24.40;52.80;;;;;;5035388;28;20695;-57
2023/06/20 03:43:19;;;;;;;4.93;4.53;;;24.40;52.70;;;;;;5034973;28;20180;-58
2023/06/20 03:45:45;;;;;;;5.15;4.72;;;24.40;52.70;;;;;;5034362;28;20558;-58
2023/06/20 03:48:11;;;;;;;4.97;4.18;;;24.40;52.70;;;;;;5034784;28;20652;-58
2023/06/20 03:50:36;;;;;;;4.82;4.43;;;24.40;52.80;;;;;;5035008;28;20229;-56
2023/06/20 03:53:01;;;;;;;4.88;4.47;;;24.40;52.80;;;;;;5034097;28;20171;-56
2023/06/20 03:55:27;;;;;;;5.20;4.80;;;24.40;52.80;;;;;;5035312;28;20176;-56
2023/06/20 03:57:53;;;;;;;5.20;4.80;;;24.40;52.80;;;;;;5034953;28;20247;-57
2023/06/20 04:00:18;;;;;;;4.57;4.18;;;24.40;52.80;;;;;;5034018;28;20621;-56
2023/06/20 04:02:45;;;;;;;5.50;5.03;;;24.40;52.80;;;;;;5034781;28;20175;-57
2023/06/20 04:05:11;;;;;;;4.88;4.32;;;24.40;52.80;;;;;;5034589;28;20354;-55
2023/06/20 04:07:41;;;;;;;5.25;4.78;;;24.40;52.80;;;;;;5034188;28;20651;-58
2023/06/20 04:10:08;;;;;;;5.05;4.65;;;24.40;52.80;;;;;;5034684;28;20254;-58
2023/06/20 04:12:34;;;;;;;4.90;4.47;;;24.40;52.80;;;;;;5033414;28;20576;-57
2023/06/20 04:14:59;;;;;;;5.75;5.25;;;24.40;52.80;;;;;;5034434;28;20700;-57
2023/06/20 04:17:25;;;;;;;4.90;4.40;;;24.40;52.70;;;;;;5034487;28;20259;-56
2023/06/20 04:19:50;;;;;;;4.82;4.43;;;24.40;52.70;;;;;;5034107;28;20219;-56
2023/06/20 04:22:16;;;;;;;5.45;4.93;;;24.40;52.70;;;;;;5033809;28;20186;-56
2023/06/20 04:24:42;;;;;;;5.20;4.70;;;24.50;52.80;;;;;;5034614;28;20217;-56
2023/06/20 04:27:07;;;;;;;5.30;4.80;;;24.40;52.80;;;;;;5033446;28;20251;-57
2023/06/20 04:29:33;;;;;;;4.90;4.38;;;24.40;52.70;;;;;;5034561;28;20210;-57
2023/06/20 04:31:58;;;;;;;5.72;5.22;;;24.40;52.70;;;;;;5033785;28;20164;-56
2023/06/20 04:34:24;;;;;;;4.97;4.57;;;24.40;52.80;;;;;;5033783;28;20213;-58
2023/06/20 04:36:54;;;;;;;5.68;5.18;;;24.40;52.80;;;;;;5034384;28;20179;-58
2023/06/20 04:39:19;;;;;;;5.07;4.63;;;24.40;52.80;;;;;;5033763;28;20236;-54
2023/06/20 04:41:45;;;;;;;5.28;4.85;;;24.40;52.80;;;;;;5033241;28;20191;-57
2023/06/20 04:44:10;;;;;;;5.68;5.18;;;24.40;52.80;;;;;;5033688;28;20207;-57
2023/06/20 04:46:36;;;;;;;4.68;4.28;;;24.40;52.80;;;;;;5033948;28;20172;-52
2023/06/20 04:49:01;;;;;;;5.10;4.70;;;24.40;52.80;;;;;;5033292;28;20183;-57
2023/06/20 04:51:27;;;;;;;5.25;4.85;;;24.40;52.90;;;;;;5034214;28;20179;-56
2023/06/20 04:53:53;;;;;;;4.85;4.45;;;24.40;52.80;;;;;;5033881;28;20176;-56
2023/06/20 04:56:19;;;;;;;5.40;4.95;;;24.40;52.90;;;;;;5032795;28;20262;-56
2023/06/20 04:58:45;;;;;;;5.57;5.15;;;24.40;52.90;;;;;;5033789;28;20191;-58
2023/06/20 05:01:11;;;;;;;5.68;5.18;;;24.40;52.80;;;;;;5033569;28;20175;-58
2023/06/20 05:03:36;;;;;;;5.07;4.57;;;24.40;52.90;;;;;;5033231;28;20183;-57
2023/06/20 05:06:02;;;;;;;5.47;4.97;;;24.40;52.90;;;;;;5033488;28;20219;-58
2023/06/20 05:08:27;;;;;;;5.63;5.13;;;24.30;52.80;;;;;;5033586;28;20180;-57
2023/06/20 05:10:53;;;;;;;5.20;4.80;;;24.40;52.90;;;;;;5032879;28;20258;-58
2023/06/20 05:13:18;;;;;;;5.60;5.10;;;24.40;52.90;;;;;;5033263;28;20199;-58
2023/06/20 05:15:44;;;;;;;5.68;5.18;;;24.40;52.90;;;;;;5032626;28;20266;-57
2023/06/20 05:18:09;;;;;;;5.22;4.82;;;24.40;52.90;;;;;;5033098;28;20631;-57
2023/06/20 05:20:38;;;;;;;5.40;4.93;;;24.40;52.90;;;;;;5033404;28;20172;-58
2023/06/20 05:23:04;;;;;;;5.68;5.18;;;24.40;52.90;;;;;;5032344;28;20176;-58
2023/06/20 05:25:29;;;;;;;4.75;4.40;;;24.40;52.90;;;;;;5033262;28;20671;-56
2023/06/20 05:27:55;;;;;;;5.28;4.80;;;24.40;52.90;;;;;;5033278;28;20172;-57
2023/06/20 05:30:21;;;;;;;5.55;5.05;;;24.40;52.90;;;;;;5032446;28;20202;-54
2023/06/20 05:32:46;;;;;;;5.70;5.20;;;24.30;52.90;;;;;;5033428;28;20634;-57
2023/06/20 05:35:12;;;;;;;5.53;5.03;;;24.40;53.00;;;;;;5033037;28;20187;-56
2023/06/20 05:37:37;;;;;;;5.55;5.05;;;24.40;53.00;;;;;;5032194;28;20226;-56
2023/06/20 05:40:05;;;;;;;5.75;5.13;;;24.40;52.90;;;;;;5033315;28;20180;-58
2023/06/20 05:42:31;;;;;;;5.50;5.07;;;24.40;53.00;;;;;;5033146;28;20528;-58
2023/06/20 05:44:57;;;;;;;5.07;4.63;;;24.40;53.00;;;;;;5031846;28;20207;-58
2023/06/20 05:47:23;;;;;;;5.90;5.43;;;24.30;52.90;;;;;;5033125;28;20179;-57
2023/06/20 05:49:48;;;;;;;5.72;5.22;;;24.30;52.90;;;;;;5032900;28;20619;-55
2023/06/20 05:52:14;;;;;;;5.93;5.43;;;24.30;52.90;;;;;;5032124;28;20259;-56
2023/06/20 05:54:43;;;;;;;5.90;5.40;;;24.40;53.00;;;;;;5032892;28;20238;-57
2023/06/20 05:57:08;;;;;;;5.35;4.95;;;24.40;53.00;;;;;;5032570;28;20324;-58
2023/06/20 05:59:34;;;;;;;6.00;5.50;;;24.30;52.90;;;;;;5032168;28;20255;-57
2023/06/20 06:01:59;;;;;;;5.60;5.10;;;24.40;53.00;;;;;;5032801;28;20623;-58
2023/06/20 06:04:28;;;;;;;5.63;5.13;;;24.40;53.00;;;;;;5032698;28;20203;-58
2023/06/20 06:06:53;;;;;;;5.90;5.40;;;24.40;53.00;;;;;;5032236;28;20195;-58
2023/06/20 06:09:22;;;;;;;5.70;5.20;;;24.40;53.00;;;;;;5032368;28;20623;-58
2023/06/20 06:11:47;;;;;;;5.53;5.03;;;24.40;53.00;;;;;;5032757;28;20532;-57
2023/06/20 06:14:16;;;;;;;5.63;5.20;;;24.40;52.90;;;;;;5031768;28;20180;-58
2023/06/20 06:16:41;;;;;;;6.05;5.55;;;24.40;53.00;;;;;;5033020;28;20176;-57
2023/06/20 06:19:07;;;;;;;5.75;5.25;;;24.40;52.90;;;;;;5031711;28;20178;-58
2023/06/20 06:21:32;;;;;;;5.93;5.40;;;24.40;52.90;;;;;;5032815;28;20210;-56
2023/06/20 06:23:58;;;;;;;5.05;4.65;;;24.50;52.90;;;;;;5032326;28;20203;-57
2023/06/20 06:26:24;;;;;;;5.63;5.22;;;24.50;52.80;;;;;;5031860;28;20203;-56
2023/06/20 06:28:49;;;;;;;5.78;5.28;;;24.50;52.80;;;;;;5032543;28;20172;-56
2023/06/20 06:31:24;;;;;;;6.05;5.20;;;24.50;52.80;;;;;;5032525;28;20369;-56
2023/06/20 06:33:49;;;;;;;5.20;4.90;;;24.50;52.80;;;;;;5032007;28;20233;-58
2023/06/20 06:36:16;;;;;;;5.53;5.13;;;24.50;52.80;;;;;;5047013;28;20179;-56
2023/06/20 06:38:41;;;;;;;5.53;5.13;;;24.50;52.90;;;;;;5056194;28;20233;-57
2023/06/20 06:41:07;;;;;;;5.85;5.35;;;24.50;52.80;;;;;;5055302;28;20604;-57
2023/06/20 06:43:33;;;;;;;5.85;5.38;;;24.60;52.90;;;;;;5056449;28;20587;-56
2023/06/20 06:45:58;;;;;;;5.95;5.45;;;24.60;52.90;;;;;;5054675;28;20260;-58
2023/06/20 06:48:24;;;;;;;5.00;4.60;;;24.60;53.00;;;;;;5055639;28;20279;-55
2023/06/20 06:50:49;;;;;;;5.95;5.45;;;24.50;52.90;;;;;;5056209;28;20175;-57
2023/06/20 06:53:15;;;;;;;5.78;5.38;;;24.60;52.90;;;;;;5055780;28;20167;-56
2023/06/20 06:55:47;;;;;;;5.80;5.38;;;24.50;53.00;;;;;;5055308;28;20177;-55
2023/06/20 06:58:12;;;;;;;6.03;5.55;;;24.50;52.90;;;;;;5055895;28;20209;-56
2023/06/20 07:00:38;;;;;;;5.50;5.00;;;24.50;53.20;;;;;;5056186;28;20175;-58
2023/06/20 07:03:04;;;;;;;5.97;5.20;;;24.60;53.30;;;;;;5055070;28;20221;-58
2023/06/20 07:05:30;;;;;;;5.50;5.00;;;24.60;53.70;;;;;;5055887;28;20735;-57
2023/06/20 07:07:55;;;;;;;6.35;5.85;;;24.60;53.70;;;;;;5055813;28;20179;-59
2023/06/20 07:10:21;;;;;;;6.38;5.78;;;24.60;53.90;;;;;;5055080;28;20171;-59
2023/06/20 07:12:46;;;;;;;5.00;4.60;;;24.60;53.70;;;;;;5055886;28;20548;-57
2023/06/20 07:15:12;;;;;;;6.05;5.55;;;24.60;54.10;;;;;;5054878;28;20183;-56
2023/06/20 07:17:37;;;;;;;5.72;5.22;;;24.60;54.10;;;;;;5055758;28;20536;-58
2023/06/20 07:20:07;;;;;;;6.13;5.60;;;24.60;53.90;;;;;;5055070;28;20175;-58
2023/06/20 07:22:33;;;;;;;6.68;5.30;;;24.60;53.90;;;;;;5054976;28;20183;-52
2023/06/20 07:24:58;;;;;;;6.00;5.50;;;24.60;53.80;;;;;;5055250;28;20207;-57
2023/06/20 07:27:24;;;;;;;5.85;5.35;;;24.60;53.70;;;;;;5055408;28;20252;-58
2023/06/20 07:29:49;;;;;;;6.40;5.80;;;24.60;53.70;;;;;;5054775;28;20644;-58
2023/06/20 07:32:16;;;;;;;6.45;5.93;;;24.60;53.80;;;;;;5055150;28;20316;-55
2023/06/20 07:34:41;;;;;;;6.50;5.90;;;24.60;53.80;;;;;;5055491;28;20191;-58
2023/06/20 07:37:07;;;;;;;5.82;5.22;;;24.60;53.70;;;;;;5054117;28;20269;-57
2023/06/20 07:39:32;;;;;;;6.28;5.78;;;24.60;53.70;;;;;;5055347;28;20175;-57
2023/06/20 07:41:58;;;;;;;6.00;5.53;;;24.70;53.70;;;;;;5055274;28;20179;-58
2023/06/20 07:44:23;;;;;;;6.35;5.85;;;24.60;53.60;;;;;;5054306;28;20199;-58
2023/06/20 07:46:49;;;;;;;5.65;5.25;;;24.70;53.70;;;;;;5054027;28;20175;-58
2023/06/20 07:49:14;;;;;;;6.32;5.72;;;24.60;53.60;;;;;;5054848;28;20630;-58
2023/06/20 07:51:40;;;;;;;6.18;5.68;;;24.70;53.70;;;;;;5054243;28;20179;-56
2023/06/20 07:54:06;;;;;;;6.43;5.75;;;24.60;53.60;;;;;;5054649;28;20183;-57
2023/06/20 07:56:32;;;;;;;5.78;5.28;;;24.70;53.60;;;;;;5055218;28;20175;-58
2023/06/20 07:58:58;;;;;;;6.18;5.68;;;24.70;53.50;;;;;;5054054;28;20231;-57
2023/06/20 08:01:23;;;;;;;5.85;5.35;;;24.70;53.50;;;;;;5055097;28;20698;-57
2023/06/20 08:03:49;;;;;;;6.32;5.75;;;24.80;53.50;;;;;;5054959;28;20171;-58
2023/06/20 08:06:14;;;;;;;6.38;5.88;;;24.80;53.50;;;;;;5053694;28;20233;-57
2023/06/20 08:08:40;;;;;;;6.32;5.82;;;24.80;53.50;;;;;;5054642;28;20171;-58
2023/06/20 08:11:05;;;;;;;5.82;5.38;;;24.80;53.40;;;;;;5054290;28;20175;-58
2023/06/20 08:13:31;;;;;;;5.65;5.15;;;24.80;53.40;;;;;;5053982;28;20175;-58
2023/06/20 08:15:57;;;;;;;6.20;5.70;;;24.80;53.40;;;;;;5054487;28;20207;-58
2023/06/20 08:18:22;;;;;;;6.32;5.70;;;24.80;53.30;;;;;;5054631;28;20232;-56
2023/06/20 08:20:48;;;;;;;5.55;5.15;;;24.80;53.40;;;;;;5053915;28;20167;-58
2023/06/20 08:23:24;;;;;;;6.50;6.00;;;24.90;53.40;;;;;;5054010;28;20656;-58
2023/06/20 08:25:49;;;;;;;6.20;5.70;;;24.90;53.40;;;;;;5053748;28;20214;-58
2023/06/20 08:28:15;;;;;;;6.05;5.55;;;24.80;53.40;;;;;;5054228;28;20758;-56
2023/06/20 08:30:40;;;;;;;6.05;5.55;;;24.90;53.40;;;;;;5054356;28;20265;-55
2023/06/20 08:33:06;;;;;;;5.45;5.05;;;24.90;53.40;;;;;;5053386;28;20254;-58
2023/06/20 08:35:31;;;;;;;6.72;6.03;;;24.90;53.40;;;;;;5054178;28;20181;-56
2023/06/20 08:37:57;;;;;;;6.05;5.40;;;24.90;53.40;;;;;;5053698;28;20302;-58
2023/06/20 08:40:22;;;;;;;6.78;6.07;;;24.90;53.40;;;;;;5053614;28;20266;-58
2023/06/20 08:42:48;;;;;;;5.57;5.18;;;24.90;53.40;;;;;;5053907;28;20210;-58
2023/06/20 08:45:15;;;;;;;5.72;5.22;;;24.90;53.40;;;;;;5053956;28;20214;-58
2023/06/20 08:47:40;;;;;;;5.93;5.43;;;24.90;53.40;;;;;;5035755;28;20232;-58
2023/06/20 08:50:06;;;;;;;6.57;5.97;;;24.90;53.30;;;;;;5053837;28;20742;-58
2023/06/20 08:52:32;;;;;;;5.97;5.47;;;25.00;53.40;;;;;;5053847;28;20185;-55
2023/06/20 08:54:58;;;;;;;6.05;5.55;;;25.00;53.30;;;;;;5035341;28;20179;-56
2023/06/20 08:57:23;;;;;;;6.10;5.60;;;25.00;53.40;;;;;;5052501;28;20214;-58
2023/06/20 08:59:49;;;;;;;5.75;5.25;;;25.00;53.30;;;;;;5053731;28;20175;-58
2023/06/20 09:02:16;;;;;;;5.80;5.40;;;25.00;53.40;;;;;;5052690;28;20175;-57
2023/06/20 09:04:41;;;;;;;5.90;5.35;;;25.00;53.40;;;;;;5053467;28;20662;-58
2023/06/20 09:07:17;;;;;;;5.88;5.38;;;24.90;53.40;;;;;;5053280;28;20179;-57
2023/06/20 09:09:43;;;;;;;6.00;5.60;;;25.00;53.50;;;;;;5052921;28;20265;-58
2023/06/20 09:12:09;;;;;;;5.70;5.20;;;25.00;53.50;;;;;;5053393;28;20266;-57
2023/06/20 09:14:34;;;;;;;6.03;5.50;;;25.00;53.50;;;;;;5053375;28;20214;-57
2023/06/20 09:17:00;;;;;;;6.18;5.68;;;25.00;53.60;;;;;;5051913;28;20183;-58
2023/06/20 09:19:25;;;;;;;8.88;5.75;;;25.00;53.60;;;;;;5052744;28;20171;-57
2023/06/20 09:21:51;;;;;;;8.63;5.65;;;25.00;53.70;;;;;;5052304;28;20256;-57
2023/06/20 09:24:19;;;;;;;5.85;5.35;;;25.00;53.80;;;;;;5052596;28;20187;-57
2023/06/20 09:26:46;;;;;;;5.40;4.85;;;25.00;53.80;;;;;;5052639;28;20651;-56
2023/06/20 09:29:14;;;;;;;5.65;5.15;;;25.10;53.80;;;;;;5051639;28;20622;-57
2023/06/20 09:31:44;;;;;;;6.00;5.50;;;25.10;53.90;;;;;;5053109;28;20191;-56
2023/06/20 09:34:13;;;;;;;5.68;4.97;;;25.10;53.90;;;;;;5052682;28;20201;-58
2023/06/20 09:36:40;;;;;;;5.85;5.25;;;25.00;53.90;;;;;;5052566;28;20262;-57
2023/06/20 09:39:20;;;;;;;5.88;5.43;;;25.10;53.80;;;;;;5052584;28;20250;-58
2023/06/20 09:41:51;;;;;;;5.85;5.35;;;25.10;53.90;;;;;;5053197;28;20175;-58
2023/06/20 09:44:17;;;;;;;6.28;5.60;;;25.20;54.00;;;;;;5051972;28;20621;-58
2023/06/20 09:46:42;;;;;;;5.65;5.15;;;25.20;54.10;;;;;;5052847;28;20266;-58
2023/06/20 09:49:08;;;;;;;5.75;5.35;;;25.20;54.10;;;;;;5052398;28;20691;-57
2023/06/20 09:51:34;;;;;;;5.68;5.18;;;25.20;54.00;;;;;;5050670;28;20642;-57
2023/06/20 09:54:04;;;;;;;6.05;5.45;;;25.20;54.00;;;;;;5050914;28;20245;-56
2023/06/20 09:56:30;;;;;;;5.57;5.18;;;25.20;54.00;;;;;;5052508;28;20246;-57
2023/06/20 09:58:58;;;;;;;5.50;4.85;;;25.20;54.00;;;;;;5050427;28;20688;-59
2023/06/20 10:01:23;;;;;;;6.53;5.80;;;25.10;54.10;;;;;;5052789;28;20201;-58
2023/06/20 10:03:49;;;;;;;5.40;4.60;;;25.20;54.20;;;;;;5051716;28;20175;-59
2023/06/20 10:06:14;;;;;;;5.30;4.90;;;25.20;54.10;;;;;;5050617;28;20210;-59
2023/06/20 10:08:40;;;;;;;5.50;5.00;;;25.20;54.10;;;;;;5052833;28;20175;-58
2023/06/20 10:11:05;;;;;;;5.82;5.28;;;25.20;54.10;;;;;;5051039;28;20179;-58
2023/06/20 10:13:31;;;;;;;5.03;4.63;;;25.20;54.10;;;;;;5052712;28;20517;-58
2023/06/20 10:15:59;;;;;;;6.93;4.97;;;25.20;54.00;;;;;;5051114;28;20634;-58
2023/06/20 10:18:30;;;;;;;6.68;5.20;;;25.30;54.00;;;;;;5052135;28;20171;-58
2023/06/20 10:20:56;;;;;;;5.35;4.85;;;25.30;53.90;;;;;;5052256;28;20187;-58
2023/06/20 10:23:28;;;;;;;5.47;4.95;;;25.30;53.90;;;;;;5052699;28;20171;-59
2023/06/20 10:25:57;;;;;;;5.47;4.97;;;25.20;53.80;;;;;;5049567;28;20747;-58
2023/06/20 10:28:23;;;;;;;5.30;4.90;;;25.20;53.90;;;;;;5059366;28;20182;-56
2023/06/20 10:30:49;;;;;;;5.75;5.25;;;25.20;53.90;;;;;;5064865;28;20232;-56
2023/06/20 10:33:14;;;;;;;5.63;5.13;;;25.30;53.80;;;;;;5051711;28;20572;-57
2023/06/20 10:35:56;;;;;;;5.53;5.03;;;25.30;54.10;;;;;;5065279;28;20174;-58
2023/06/20 10:38:22;;;;;;;5.95;5.10;;;25.30;53.70;;;;;;5072389;28;20233;-58
2023/06/20 10:40:47;;;;;;;5.88;4.80;;;25.30;53.70;;;;;;5070612;28;20177;-59
2023/06/20 10:43:17;;;;;;;5.10;4.53;;;25.40;53.70;;;;;;5067641;28;20168;-59
2023/06/20 10:45:59;;;;;;;6.03;5.38;;;25.40;53.60;;;;;;5052349;28;20229;-58
2023/06/20 10:48:26;;;;;;;5.95;5.13;;;25.40;53.60;;;;;;5051364;28;20509;-58
2023/06/20 10:51:01;;;;;;;5.35;4.85;;;25.40;53.60;;;;;;5052350;28;20183;-57
2023/06/20 10:53:27;;;;;;;5.22;4.80;;;25.30;53.60;;;;;;5051857;28;20189;-57
2023/06/20 10:55:53;;;;;;;4.78;4.35;;;25.30;53.70;;;;;;5052465;28;20183;-57
2023/06/20 10:58:18;;;;;;;5.75;5.25;;;25.40;53.60;;;;;;5051857;28;20175;-59
2023/06/20 11:00:44;;;;;;;5.55;5.05;;;25.40;53.50;;;;;;5059718;28;20574;-58
2023/06/20 11:03:10;;;;;;;5.35;4.85;;;25.30;53.50;;;;;;5071888;28;20170;-59
2023/06/20 11:05:36;;;;;;;5.10;4.70;;;25.40;53.50;;;;;;5072076;28;20248;-59
2023/06/20 11:08:10;;;;;;;6.43;4.97;;;25.40;53.50;;;;;;5071289;28;20197;-58
2023/06/20 11:10:36;;;;;;;4.82;4.43;;;25.40;53.60;;;;;;5072352;28;20175;-59
2023/06/20 11:13:03;;;;;;;5.45;5.00;;;25.40;53.40;;;;;;5055763;28;20187;-58
2023/06/20 11:15:32;;;;;;;5.15;4.75;;;25.50;53.50;;;;;;5051436;28;20183;-57
2023/06/20 11:18:01;;;;;;;5.20;4.68;;;25.40;53.70;;;;;;5051978;28;20544;-59
2023/06/20 11:20:27;;;;;;;6.18;5.13;;;25.40;53.80;;;;;;5052119;28;20171;-59
2023/06/20 11:22:54;;;;;;;5.82;4.80;;;25.40;53.90;;;;;;5055130;28;20688;-57
2023/06/20 11:25:29;;;;;;;5.05;4.60;;;25.60;54.10;;;;;;5055503;28;20249;-58
2023/06/20 11:27:55;;;;;;;5.82;4.97;;;25.50;53.90;;;;;;5055495;28;20722;-54
2023/06/20 11:30:25;;;;;;;5.60;4.60;;;25.50;54.00;;;;;;5055053;28;20202;-57
2023/06/20 11:33:12;;;;;;;6.07;5.25;;;25.40;54.00;;;;;;5055395;28;20207;-57
2023/06/20 11:35:49;;;;;;;5.70;4.90;;;25.50;53.90;;;;;;5069330;28;20180;-58
2023/06/20 11:38:16;;;;;;;5.13;4.38;;;25.50;53.90;;;;;;5074947;28;20253;-57
2023/06/20 11:40:42;;;;;;;4.70;4.10;;;25.50;54.10;;;;;;5075377;28;20181;-56
2023/06/20 11:43:25;;;;;;;4.30;3.90;;;25.50;54.00;;;;;;5074247;28;20718;-56
2023/06/20 11:45:50;;;;;;;4.93;4.32;;;25.60;54.00;;;;;;5073950;28;20293;-58
2023/06/20 11:48:16;;;;;;;5.03;4.20;;;25.60;54.20;;;;;;5074898;28;20253;-57
2023/06/20 11:50:43;;;;;;;6.25;4.38;;;25.50;54.10;;;;;;5074497;28;20298;-54
2023/06/20 11:53:19;;;;;;;6.45;4.22;;;25.50;54.20;;;;;;5074724;28;20629;-55
2023/06/20 11:55:49;;;;;;;4.78;4.18;;;25.50;54.30;;;;;;5075056;28;20202;-57
2023/06/20 11:58:15;;;;;;;5.32;4.35;;;25.50;54.40;;;;;;5074221;28;20166;-56
2023/06/20 12:00:40;;;;;;;5.07;4.43;;;25.50;54.30;;;;;;5075250;28;20182;-58
2023/06/20 12:03:10;;;;;;;4.63;4.20;;;25.60;54.30;;;;;;5074668;28;20224;-57
2023/06/20 12:05:36;;;;;;;4.68;4.28;;;25.60;54.20;;;;;;5072950;28;20280;-56
2023/06/20 12:08:03;;;;;;;7.53;4.63;;;25.60;54.30;;;;;;5062975;28;20175;-57
2023/06/20 12:10:29;;;;;;;5.03;4.25;;;25.60;54.40;;;;;;5054361;28;20258;-58
2023/06/20 12:12:54;;;;;;;5.72;4.75;;;25.60;54.40;;;;;;5053629;28;20754;-58
2023/06/20 12:15:20;;;;;;;4.63;4.10;;;25.60;54.40;;;;;;5053857;28;20532;-58
2023/06/20 12:17:45;;;;;;;6.18;3.90;;;25.60;54.30;;;;;;5053064;28;20203;-57
2023/06/20 12:20:13;;;;;;;6.40;4.57;;;25.70;54.40;;;;;;5053650;28;20221;-55
2023/06/20 12:22:38;;;;;;;4.63;4.20;;;25.60;54.30;;;;;;5050956;28;20186;-58
2023/06/20 12:25:04;;;;;;;5.40;4.30;;;25.70;54.30;;;;;;5052597;28;20203;-57
2023/06/20 12:27:30;;;;;;;4.60;4.20;;;25.70;54.30;;;;;;5054644;28;20179;-56
2023/06/20 12:29:55;;;;;;;5.55;4.45;;;25.70;54.20;;;;;;5054386;28;20163;-57
2023/06/20 12:32:21;;;;;;;4.90;4.50;;;25.70;54.90;;;;;;5052716;28;20171;-56
2023/06/20 12:34:46;;;;;;;4.40;3.63;;;25.70;54.30;;;;;;5061660;28;20202;-58
2023/06/20 12:37:12;;;;;;;6.03;4.22;;;25.70;54.20;;;;;;5074130;28;20178;-57
2023/06/20 12:39:39;;;;;;;5.38;4.07;;;25.70;54.20;;;;;;5073516;28;20205;-58
2023/06/20 12:42:04;;;;;;;5.30;4.50;;;25.70;54.20;;;;;;5073897;28;20178;-58
2023/06/20 12:44:30;;;;;;;5.75;4.05;;;25.70;54.20;;;;;;5073822;28;20259;-58
2023/06/20 12:46:55;;;;;;;4.15;3.75;;;25.70;54.20;;;;;;5073254;28;20265;-58